This is the latest recevied weather packets stored in our database for station/object NM5PB-13. If no packets are shown the sender has not sent any weather packets the latest 10 day(s).
| Time | Temp. | Humidity | Pressure | Rain* | Wind** | Luminosity | Snow |
|---|---|---|---|---|---|---|---|
| 1777524350 | 3.89° C | 83% | 1017 hPa | 0 mm | - | - | - |
| 1777523443 | 3.89° C | 84% | 1017 hPa | 0 mm | - | - | - |
| 1777522540 | 3.89° C | 82% | 1018 hPa | 0 mm | - | - | - |
| 1777521634 | 4.44° C | 81% | 1018 hPa | 0 mm | - | - | - |
| 1777520730 | 4.44° C | 81% | 1018 hPa | 0 mm | - | - | - |
| 1777519828 | 5° C | 81% | 1018 hPa | 0 mm | - | - | - |
| 1777518922 | 5.56° C | 78% | 1018 hPa | 0 mm | - | - | - |
| 1777518018 | 5.56° C | 77% | 1018 hPa | 0 mm | - | - | - |
| 1777517115 | 6.67° C | 72% | 1018 hPa | 0 mm | - | - | - |
| 1777516211 | 7.22° C | 69% | 1018 hPa | 0 mm | - | - | - |
| 1777515306 | 7.78° C | 63% | 1018 hPa | 0 mm | - | - | - |
| 1777514404 | 8.33° C | 69% | 1017 hPa | 0 mm | - | - | - |
| 1777513500 | 9.44° C | 55% | 1017 hPa | 0 mm | - | - | - |
| 1777512594 | 10° C | 51% | 1017 hPa | 0 mm | - | - | - |
| 1777511690 | 11.11° C | 47% | 1017 hPa | 0 mm | - | - | - |
| 1777510787 | 11.67° C | 45% | 1017 hPa | 0 mm | - | - | - |
| 1777509881 | 11.67° C | 45% | 1017 hPa | 0 mm | - | - | - |
| 1777508978 | 12.22° C | 43% | 1016 hPa | 0 mm | - | - | - |
| 1777508075 | 12.78° C | 42% | 1016 hPa | 0 mm | - | - | - |
| 1777507170 | 12.78° C | 41% | 1016 hPa | 0 mm | - | - | - |
| 1777506264 | 13.33° C | 40% | 1016 hPa | 0 mm | - | - | - |
| 1777505361 | 13.33° C | 40% | 1016 hPa | 0 mm | - | - | - |
| 1777504459 | 13.89° C | 40% | 1016 hPa | 0 mm | - | - | - |
| 1777503554 | 13.89° C | 39% | 1016 hPa | 0 mm | - | - | - |
| 1777502650 | 13.33° C | 41% | 1016 hPa | 0 mm | - | - | - |
* Rain latest hour (hover to see other rain measurements)
** Current wind speed in m/s (hover to see current wind gust speed)